createdAt,value
2019-01-23T00:01:26.452Z,78.53
2019-01-23T00:03:56.781Z,78.74
2019-01-23T00:06:27.171Z,78.78
2019-01-23T00:08:57.538Z,78.82
2019-01-23T00:11:27.921Z,79.06
2019-01-23T00:17:06.541Z,79.47
2019-01-23T00:19:36.905Z,79.46
2019-01-23T00:22:07.926Z,79.42
2019-01-23T00:24:38.509Z,79.38
2019-01-23T00:27:08.937Z,79.54
2019-01-23T00:29:58.396Z,79.56
2019-01-23T00:32:28.874Z,79.76
2019-01-23T00:34:59.257Z,79.83
2019-01-23T00:37:29.535Z,79.88
2019-01-23T00:40:20.411Z,79.97
2019-01-23T00:42:50.737Z,80.19
2019-01-23T00:45:21.151Z,80.35
2019-01-23T00:47:53.056Z,80.42
2019-01-23T00:50:23.574Z,80.55
2019-01-23T00:52:53.850Z,80.65
2019-01-23T00:58:07.736Z,80.84
2019-01-23T01:00:38.084Z,81.06
2019-01-23T01:03:08.633Z,81.09
2019-01-23T01:05:39.226Z,81.26
2019-01-23T01:08:09.687Z,81.35
2019-01-23T01:10:39.973Z,81.45
2019-01-23T01:13:10.243Z,81.60
2019-01-23T01:15:40.665Z,81.64
2019-01-23T01:18:10.986Z,81.70
2019-01-23T01:20:41.260Z,81.83
2019-01-23T01:23:11.744Z,82.03
2019-01-23T01:25:42.163Z,82.17
2019-01-23T01:28:12.485Z,82.08
2019-01-23T01:30:42.764Z,82.22
2019-01-23T01:33:13.096Z,82.37
2019-01-23T01:35:43.381Z,82.60
2019-01-23T01:47:07.340Z,83.31
2019-01-23T01:49:37.577Z,83.60
2019-01-23T01:52:07.850Z,83.50
2019-01-23T01:54:38.147Z,83.52
2019-01-23T02:03:30.531Z,83.97
2019-01-23T02:06:00.911Z,84.11
2019-01-23T02:08:31.225Z,84.20
2019-01-23T02:11:01.492Z,84.19
2019-01-23T02:13:31.805Z,84.27
2019-01-23T02:16:02.026Z,84.40
2019-01-23T02:18:32.359Z,84.51
2019-01-23T02:21:02.632Z,84.57
2019-01-23T02:23:32.914Z,84.54
2019-01-23T02:26:03.189Z,84.50
2019-01-23T02:28:33.576Z,84.52
2019-01-23T02:33:59.443Z,84.42
2019-01-23T02:36:29.788Z,84.46
2019-01-23T02:39:00.049Z,84.59
2019-01-23T02:41:30.501Z,84.91
2019-01-23T02:44:02.370Z,84.85
2019-01-23T02:46:32.728Z,85.02
2019-01-23T02:49:03.131Z,85.07
2019-01-23T02:51:33.551Z,85.14
2019-01-23T02:54:03.850Z,85.51
2019-01-23T02:56:34.216Z,85.60
2019-01-23T03:01:49.884Z,85.68
2019-01-23T03:07:11.744Z,85.86
2019-01-23T03:09:42.077Z,85.89
2019-01-23T03:12:12.485Z,85.92
2019-01-23T03:14:42.919Z,86.02
2019-01-23T03:17:13.280Z,85.98
2019-01-23T03:19:44.123Z,86.08
2019-01-23T03:22:33.848Z,86.03
2019-01-23T03:25:04.318Z,86.09
2019-01-23T03:27:34.594Z,86.11
2019-01-23T03:33:07.423Z,86.17
2019-01-23T03:35:37.856Z,86.22
2019-01-23T03:38:08.103Z,86.24
2019-01-23T03:43:34.700Z,86.12
2019-01-23T03:46:05.115Z,86.16
2019-01-23T03:48:35.456Z,86.08
2019-01-23T03:51:24.924Z,86.18
2019-01-23T03:53:55.202Z,86.13
2019-01-23T03:56:25.480Z,86.29
2019-01-23T03:58:55.867Z,86.29
2019-01-23T04:01:26.144Z,86.28
2019-01-23T04:03:56.477Z,86.34
2019-01-23T04:06:38.663Z,86.59
2019-01-23T04:09:09.594Z,86.75
2019-01-23T04:11:39.928Z,86.92
2019-01-23T04:14:10.203Z,86.87
2019-01-23T04:16:40.489Z,86.79
2019-01-23T04:19:10.743Z,86.74
2019-01-23T04:21:41.046Z,86.75
2019-01-23T04:24:11.344Z,86.53
2019-01-23T04:26:41.612Z,86.39
2019-01-23T04:29:13.749Z,86.32
2019-01-23T04:31:44.131Z,86.19
2019-01-23T04:34:14.371Z,86.22
2019-01-23T04:36:44.610Z,86.18
2019-01-23T04:39:39.698Z,86.15
2019-01-23T04:42:10.046Z,85.94
2019-01-23T04:44:40.353Z,86.07
2019-01-23T04:49:52.689Z,86.12
2019-01-23T04:52:42.189Z,86.21
2019-01-23T05:04:12.330Z,86.48
2019-01-23T05:06:42.773Z,86.41
2019-01-23T05:09:13.065Z,86.44
2019-01-23T05:11:44.403Z,86.64
2019-01-23T05:14:14.760Z,86.53
2019-01-23T05:16:45.044Z,86.53
2019-01-23T05:19:15.417Z,86.49
2019-01-23T05:24:51.922Z,86.69
2019-01-23T05:27:22.244Z,86.67
2019-01-23T05:29:54.949Z,86.68
2019-01-23T05:35:09.471Z,86.84
2019-01-23T05:37:39.798Z,86.83
2019-01-23T05:42:57.495Z,86.75
2019-01-23T05:45:27.777Z,86.73
2019-01-23T05:47:58.192Z,86.67
2019-01-23T05:50:28.601Z,86.62
2019-01-23T05:56:25.235Z,86.66
2019-01-23T05:58:56.059Z,86.69
2019-01-23T06:01:26.525Z,86.65
2019-01-23T06:12:56.330Z,86.57
2019-01-23T06:15:28.719Z,86.60
2019-01-23T06:17:58.990Z,86.56
2019-01-23T06:20:29.535Z,86.67
2019-01-23T06:23:13.709Z,86.53
2019-01-23T06:25:44.109Z,86.61
2019-01-23T06:28:15.189Z,86.61
2019-01-23T06:30:53.164Z,86.66
2019-01-23T06:33:25.476Z,86.69
2019-01-23T06:35:55.839Z,86.67
2019-01-23T06:38:26.126Z,86.66
2019-01-23T06:40:56.382Z,86.64
2019-01-23T06:43:26.698Z,86.48
2019-01-23T06:45:56.903Z,86.53
2019-01-23T06:48:27.256Z,86.51
2019-01-23T06:50:57.527Z,86.54
2019-01-23T06:53:27.880Z,86.64
2019-01-23T06:55:58.111Z,86.52
2019-01-23T06:58:28.356Z,86.44
2019-01-23T07:01:00.005Z,86.45
2019-01-23T07:06:15.244Z,86.55
2019-01-23T07:11:38.431Z,86.52
2019-01-23T07:14:08.689Z,86.50
2019-01-23T07:16:38.979Z,86.57
2019-01-23T07:19:28.594Z,86.52
2019-01-23T07:22:05.188Z,86.49
2019-01-23T07:24:35.435Z,86.31
2019-01-23T07:27:05.791Z,86.27
2019-01-23T07:29:38.851Z,86.29
2019-01-23T07:32:09.128Z,86.22
2019-01-23T07:34:39.339Z,86.13
2019-01-23T07:42:35.666Z,85.70
2019-01-23T07:45:07.656Z,85.72
2019-01-23T07:47:38.418Z,85.56
2019-01-23T07:50:09.838Z,85.44
2019-01-23T07:52:59.524Z,85.16
2019-01-23T07:55:29.738Z,85.12
2019-01-23T08:00:49.158Z,84.81
2019-01-23T08:03:19.493Z,84.69
2019-01-23T08:06:10.735Z,84.44
2019-01-23T08:08:41.012Z,84.35
2019-01-23T08:11:11.590Z,84.27
2019-01-23T08:16:46.039Z,84.26
2019-01-23T08:19:16.277Z,84.11
2019-01-23T08:21:46.619Z,84.02
2019-01-23T08:24:17.053Z,83.90
2019-01-23T08:26:47.390Z,83.81
2019-01-23T08:29:36.987Z,83.56
2019-01-23T08:32:08.502Z,83.53
2019-01-23T08:34:39.381Z,83.38
2019-01-23T08:39:48.393Z,82.98
2019-01-23T08:42:18.613Z,82.75
2019-01-23T08:44:48.928Z,82.78
2019-01-23T08:47:19.215Z,82.39
2019-01-23T08:49:50.422Z,82.23
2019-01-23T08:55:04.451Z,81.78
2019-01-23T08:57:47.855Z,81.49
2019-01-23T09:00:18.249Z,81.01
2019-01-23T09:02:48.725Z,80.26
2019-01-23T09:11:30.780Z,79.50
2019-01-23T09:14:01.104Z,79.23
2019-01-23T09:16:46.108Z,78.94
2019-01-23T09:19:16.573Z,78.59
2019-01-23T09:21:46.912Z,77.87
2019-01-23T09:24:17.911Z,77.36
2019-01-23T09:26:50.298Z,77.05
2019-01-23T09:29:20.724Z,76.79
2019-01-23T09:32:17.936Z,76.90
2019-01-23T09:35:27.220Z,76.38
2019-01-23T09:38:35.639Z,76.32
2019-01-23T09:41:15.236Z,75.56
2019-01-23T09:47:21.643Z,74.49
2019-01-23T09:53:34.422Z,74.32
2019-01-23T09:56:05.173Z,73.89
2019-01-23T09:58:35.463Z,73.77
2019-01-23T10:04:11.645Z,72.54
2019-01-23T10:06:41.997Z,72.42
2019-01-23T10:12:28.457Z,72.01
2019-01-23T10:15:03.176Z,71.78
2019-01-23T10:17:33.516Z,71.71
2019-01-23T10:20:04.312Z,71.34
2019-01-23T10:22:36.549Z,70.25
2019-01-23T10:25:07.094Z,70.29
2019-01-23T10:30:28.723Z,69.75
2019-01-23T10:35:41.406Z,70.73
2019-01-23T10:38:11.684Z,69.58
2019-01-23T10:40:42.042Z,70.12
2019-01-23T10:46:22.820Z,69.48
2019-01-23T10:48:54.779Z,68.68
2019-01-23T10:51:25.087Z,68.35
2019-01-23T10:54:14.956Z,67.76
2019-01-23T10:56:46.323Z,67.40
2019-01-23T11:02:19.772Z,66.51
2019-01-23T11:04:50.630Z,66.22
2019-01-23T11:07:21.113Z,65.42
2019-01-23T11:12:42.056Z,66.71
2019-01-23T11:15:31.651Z,67.54
2019-01-23T11:18:20.935Z,67.93
2019-01-23T11:20:51.175Z,67.47
2019-01-23T11:23:21.647Z,67.74
2019-01-23T11:25:51.947Z,66.53
2019-01-23T11:28:22.199Z,67.25
2019-01-23T11:33:36.941Z,66.41
2019-01-23T11:36:07.508Z,66.98
2019-01-23T11:38:40.414Z,67.58
2019-01-23T11:41:24.134Z,67.13
2019-01-23T11:43:55.107Z,67.74
2019-01-23T11:46:25.481Z,66.51
2019-01-23T11:48:58.421Z,67.23
2019-01-23T11:51:28.722Z,67.52
2019-01-23T11:56:41.281Z,67.18
2019-01-23T11:59:15.167Z,68.33
2019-01-23T12:01:47.441Z,67.31
2019-01-23T12:10:13.099Z,67.37
2019-01-23T12:12:59.852Z,66.59
2019-01-23T12:21:28.321Z,66.80
2019-01-23T12:27:03.327Z,67.14
2019-01-23T12:29:35.393Z,67.13
2019-01-23T12:32:17.898Z,66.38
2019-01-23T12:34:53.522Z,67.31
2019-01-23T12:40:31.392Z,67.72
2019-01-23T12:49:42.285Z,67.34
2019-01-23T12:52:14.220Z,67.92
2019-01-23T12:54:44.573Z,68.23
2019-01-23T12:57:15.440Z,69.33
2019-01-23T12:59:51.911Z,68.99
2019-01-23T13:02:22.261Z,68.79
2019-01-23T13:08:08.971Z,70.05
2019-01-23T13:14:09.072Z,70.87
2019-01-23T13:16:41.755Z,71.66
2019-01-23T13:19:12.133Z,71.31
2019-01-23T13:21:43.017Z,71.46
2019-01-23T13:27:16.652Z,72.29
2019-01-23T13:32:40.974Z,72.99
2019-01-23T13:35:13.432Z,73.15
2019-01-23T13:37:44.448Z,72.95
2019-01-23T13:43:23.776Z,72.69
2019-01-23T13:45:54.010Z,73.10
2019-01-23T13:51:27.244Z,73.60
2019-01-23T13:53:57.643Z,74.07
2019-01-23T13:56:27.952Z,74.19
2019-01-23T13:58:58.368Z,74.76
2019-01-23T14:01:28.715Z,75.08
2019-01-23T14:07:12.408Z,76.58
2019-01-23T14:12:11.640Z,75.78
2019-01-23T14:15:01.117Z,76.88
2019-01-23T14:17:31.824Z,77.69
2019-01-23T14:22:52.226Z,78.59
2019-01-23T14:25:22.424Z,79.33
2019-01-23T14:27:54.700Z,79.63
2019-01-23T14:30:28.325Z,80.13
2019-01-23T14:35:49.031Z,79.80
2019-01-23T14:38:19.433Z,80.72
2019-01-23T14:41:02.355Z,81.21
2019-01-23T14:43:32.679Z,81.02
2019-01-23T14:46:03.959Z,80.58
2019-01-23T14:48:34.238Z,80.95
2019-01-23T14:54:06.682Z,80.84
2019-01-23T14:56:37.038Z,81.46
2019-01-23T14:59:11.630Z,81.40
2019-01-23T15:01:41.878Z,82.92
2019-01-23T15:04:13.921Z,83.00
2019-01-23T15:06:44.253Z,83.20
2019-01-23T15:09:19.867Z,83.52
2019-01-23T15:11:50.090Z,83.54
2019-01-23T15:14:20.481Z,83.90
2019-01-23T15:16:53.656Z,83.87
2019-01-23T15:20:10.473Z,83.79
2019-01-23T15:22:40.719Z,83.44
2019-01-23T15:25:11.098Z,82.90
2019-01-23T15:27:41.363Z,83.11
2019-01-23T15:30:13.367Z,82.91
2019-01-23T15:35:26.176Z,82.85
2019-01-23T15:37:56.480Z,83.63
2019-01-23T15:40:29.098Z,83.18
2019-01-23T15:42:59.469Z,83.26
2019-01-23T15:45:29.763Z,82.85
2019-01-23T15:48:00.063Z,83.17
2019-01-23T15:56:17.358Z,83.50
2019-01-23T16:01:42.773Z,84.08
2019-01-23T16:04:13.983Z,84.01
2019-01-23T16:09:45.783Z,84.42
2019-01-23T16:12:16.050Z,84.37
2019-01-23T16:14:46.809Z,84.09
2019-01-23T16:17:17.296Z,84.45
2019-01-23T16:19:47.638Z,84.54
2019-01-23T16:22:37.053Z,84.91
2019-01-23T16:25:08.552Z,84.34
2019-01-23T16:27:38.842Z,84.45
2019-01-23T16:33:22.611Z,84.47
2019-01-23T16:35:52.853Z,84.24
2019-01-23T16:38:23.177Z,84.10
2019-01-23T16:40:53.421Z,84.19
2019-01-23T16:44:08.753Z,83.84
2019-01-23T16:46:39.123Z,83.96
2019-01-23T16:49:30.171Z,83.91
2019-01-23T16:52:01.822Z,84.05
2019-01-23T16:54:49.803Z,83.64
2019-01-23T16:57:22.483Z,83.62
2019-01-23T17:02:55.244Z,83.65
2019-01-23T17:05:28.130Z,83.69
2019-01-23T17:08:00.306Z,83.72
2019-01-23T17:10:31.806Z,83.70
2019-01-23T17:16:16.681Z,83.48
2019-01-23T17:18:49.542Z,83.22
2019-01-23T17:21:19.787Z,83.57
2019-01-23T17:23:50.039Z,83.26
2019-01-23T17:26:20.389Z,83.50
2019-01-23T17:29:06.830Z,83.22
2019-01-23T17:31:37.259Z,83.37
2019-01-23T17:34:07.875Z,83.00
2019-01-23T17:37:03.167Z,83.23
2019-01-23T17:39:33.433Z,83.23
2019-01-23T17:42:23.188Z,82.83
2019-01-23T17:44:53.434Z,82.77
2019-01-23T17:50:15.769Z,82.87
2019-01-23T17:52:46.052Z,82.47
2019-01-23T17:55:28.335Z,82.72
2019-01-23T17:57:59.104Z,82.58
2019-01-23T18:08:39.256Z,82.38
2019-01-23T18:11:09.483Z,82.45
2019-01-23T18:13:39.756Z,82.17
2019-01-23T18:16:11.832Z,82.27
2019-01-23T18:18:42.149Z,82.08
2019-01-23T18:21:12.747Z,82.02
2019-01-23T18:23:43.021Z,81.90
2019-01-23T18:26:13.299Z,81.83
2019-01-23T18:28:43.736Z,81.61
2019-01-23T18:31:44.853Z,81.84
2019-01-23T18:34:49.415Z,81.79
2019-01-23T18:37:42.736Z,81.67
2019-01-23T18:40:51.400Z,81.53
2019-01-23T18:44:00.074Z,81.41
2019-01-23T18:47:09.722Z,81.31
2019-01-23T18:50:18.026Z,81.38
2019-01-23T18:53:01.761Z,81.14
2019-01-23T18:55:32.721Z,81.14
2019-01-23T19:01:06.671Z,80.98
2019-01-23T19:03:37.372Z,80.86
2019-01-23T19:06:07.744Z,80.84
2019-01-23T19:08:38.047Z,81.12
2019-01-23T19:11:11.830Z,80.89
2019-01-23T19:13:43.131Z,80.83
2019-01-23T19:16:33.975Z,81.07
2019-01-23T19:19:05.026Z,81.00
2019-01-23T19:21:55.213Z,80.93
2019-01-23T19:24:25.672Z,81.16
2019-01-23T19:26:58.667Z,80.94
2019-01-23T19:29:53.707Z,80.94
2019-01-23T19:32:24.098Z,81.11
2019-01-23T19:34:54.574Z,80.98
2019-01-23T19:37:25.059Z,81.32
2019-01-23T19:39:55.349Z,81.71
2019-01-23T19:45:32.065Z,81.09
2019-01-23T19:50:57.821Z,81.23
2019-01-23T19:53:28.136Z,81.47
2019-01-23T19:56:00.813Z,81.43
2019-01-23T19:58:50.406Z,81.29
2019-01-23T20:01:20.915Z,81.39
2019-01-23T20:03:51.344Z,81.40
2019-01-23T20:06:21.640Z,81.14
2019-01-23T20:08:51.957Z,81.24
2019-01-23T20:11:22.653Z,81.29
2019-01-23T20:14:24.761Z,81.40
2019-01-23T20:16:57.081Z,81.34
2019-01-23T20:19:27.365Z,81.07
2019-01-23T20:27:32.072Z,81.66
2019-01-23T20:30:02.916Z,81.95
2019-01-23T20:32:33.334Z,81.62
2019-01-23T20:35:03.713Z,82.04
2019-01-23T20:37:34.148Z,82.07
2019-01-23T20:46:01.251Z,82.22
2019-01-23T20:48:31.731Z,82.28
2019-01-23T20:51:02.065Z,82.52
2019-01-23T20:53:32.385Z,82.64
2019-01-23T20:56:02.645Z,82.73
2019-01-23T20:58:32.959Z,83.06
2019-01-23T21:01:03.379Z,82.85
2019-01-23T21:03:35.159Z,82.95
2019-01-23T21:08:51.623Z,82.94
2019-01-23T21:11:21.851Z,82.98
2019-01-23T21:13:53.837Z,83.04
2019-01-23T21:16:42.306Z,83.11
2019-01-23T21:19:13.035Z,83.13
2019-01-23T21:24:44.731Z,82.82
2019-01-23T21:29:57.329Z,82.87
2019-01-23T21:32:27.594Z,83.18
2019-01-23T21:34:57.867Z,83.33
2019-01-23T21:37:28.205Z,83.30
2019-01-23T21:39:58.457Z,83.51
2019-01-23T21:42:28.767Z,83.57
2019-01-23T21:44:59.148Z,83.16
2019-01-23T21:47:31.080Z,83.37
2019-01-23T21:53:01.002Z,83.22
2019-01-23T21:55:31.318Z,83.35
2019-01-23T21:58:01.582Z,83.43
2019-01-23T22:03:19.576Z,83.50
2019-01-23T22:08:44.658Z,83.43
2019-01-23T22:11:14.974Z,83.36
2019-01-23T22:13:45.275Z,83.74
2019-01-23T22:16:16.265Z,83.42
2019-01-23T22:18:58.826Z,83.42
2019-01-23T22:21:29.270Z,83.46
2019-01-23T22:23:59.558Z,83.52
2019-01-23T22:26:43.970Z,83.65
2019-01-23T22:31:56.620Z,84.06
2019-01-23T22:34:27.377Z,83.95
2019-01-23T22:37:03.491Z,83.77
2019-01-23T22:39:33.822Z,83.54
2019-01-23T22:42:04.250Z,83.43
2019-01-23T22:44:34.491Z,83.36
2019-01-23T22:47:05.135Z,83.31
2019-01-23T22:49:35.407Z,83.08
2019-01-23T22:52:05.702Z,82.75
2019-01-23T22:54:35.930Z,82.41
2019-01-23T23:06:08.582Z,82.71
2019-01-23T23:08:38.837Z,83.47
2019-01-23T23:11:09.109Z,83.10
2019-01-23T23:13:39.484Z,82.41
2019-01-23T23:28:04.104Z,79.60
2019-01-23T23:30:35.476Z,79.46
2019-01-23T23:33:08.109Z,78.92
2019-01-23T23:35:38.562Z,79.03
2019-01-23T23:41:09.204Z,78.79
2019-01-23T23:47:03.239Z,78.84
2019-01-23T23:49:33.604Z,78.88
2019-01-23T23:52:04.297Z,79.76
2019-01-23T23:54:34.742Z,80.18
2019-01-23T23:57:05.144Z,79.79
2019-01-23T23:59:36.071Z,79.63
